Time;durP1;ratioP1;P1;durP2;ratioP2;P2;SDS_P1;SDS_P2;PMS_P1;PMS_P2;Temp;Humidity;BMP_temperature;BMP_pressure;BME280_temperature;BME280_humidity;BME280_pressure;Samples;Min_cycle;Max_cycle;Signal;HPM_P1;HPM_P2
2022/12/22 03:27:21;;;;;;;4.70;2.60;;;;;;;;;;5046405;28;20176;-66
2022/12/22 03:29:46;;;;;;;4.90;3.13;;;;;;;;;;5048139;28;20108;-68
2022/12/22 03:32:11;;;;;;;4.80;2.60;;;;;;;;;;5043353;28;20032;-67
2022/12/22 03:34:37;;;;;;;4.57;2.85;;;;;;;;;;5042516;28;20287;-67
2022/12/22 03:37:02;;;;;;;6.53;3.10;;;;;;;;;;5040660;28;20467;-67
2022/12/22 03:39:27;;;;;;;9.25;3.83;;;;;;;;;;5043076;28;20473;-67
2022/12/22 03:47:20;;;;;;;6.38;3.10;;;;;;;;;;5036448;28;20036;-67
2022/12/22 03:49:45;;;;;;;6.20;3.35;;;;;;;;;;5041808;28;20029;-67
2022/12/22 03:52:11;;;;;;;5.75;3.03;;;;;;;;;;5037266;28;20020;-67
2022/12/22 03:54:36;;;;;;;5.18;3.00;;;;;;;;;;5040125;28;20128;-67
2022/12/22 03:57:01;;;;;;;6.13;2.70;;;;;;;;;;5042352;28;20036;-66
2022/12/22 03:59:26;;;;;;;4.63;3.17;;;;;;;;;;5044642;28;20283;-66
2022/12/22 04:01:52;;;;;;;4.87;3.43;;;;;;;;;;5046320;28;20267;-67
2022/12/22 04:04:18;;;;;;;5.13;3.30;;;;;;;;;;5044100;28;20741;-67
2022/12/22 04:06:43;;;;;;;6.65;3.35;;;;;;;;;;5044162;28;20551;-67
2022/12/22 04:09:09;;;;;;;4.05;2.60;;;;;;;;;;5044361;28;20132;-67
2022/12/22 04:14:18;;;;;;;8.00;2.97;;;;;;;;;;5046024;28;20028;-66
2022/12/22 04:16:44;;;;;;;4.50;3.15;;;;;;;;;;5047935;28;20029;-67
2022/12/22 04:19:09;;;;;;;3.88;2.92;;;;;;;;;;5046768;28;20017;-67
2022/12/22 04:21:35;;;;;;;6.63;3.00;;;;;;;;;;5047246;28;20029;-67
2022/12/22 04:24:00;;;;;;;5.60;3.00;;;;;;;;;;5043758;28;20219;-67
2022/12/22 04:26:25;;;;;;;6.13;3.58;;;;;;;;;;5041375;28;20033;-66
2022/12/22 04:28:51;;;;;;;7.82;4.30;;;;;;;;;;5040646;28;20023;-66
2022/12/22 04:31:17;;;;;;;8.02;4.95;;;;;;;;;;5034465;28;20486;-66
2022/12/22 04:33:42;;;;;;;5.50;4.68;;;;;;;;;;5046221;28;20029;-67
2022/12/22 04:36:08;;;;;;;6.70;4.35;;;;;;;;;;5044961;28;20532;-67
2022/12/22 04:38:34;;;;;;;6.78;5.20;;;;;;;;;;5045540;28;20029;-67
2022/12/22 04:40:59;;;;;;;5.80;4.50;;;;;;;;;;5047403;28;20060;-67
2022/12/22 04:43:24;;;;;;;7.18;5.43;;;;;;;;;;5049047;28;20028;-67
2022/12/22 04:45:52;;;;;;;8.85;5.13;;;;;;;;;;5049148;28;20059;-67
2022/12/22 04:48:18;;;;;;;6.15;4.85;;;;;;;;;;5046577;28;20434;-67
2022/12/22 04:50:43;;;;;;;15.68;6.78;;;;;;;;;;5047931;28;20021;-67
2022/12/22 04:53:08;;;;;;;42.67;8.45;;;;;;;;;;5046493;28;20078;-67
2022/12/22 04:55:33;;;;;;;23.33;6.82;;;;;;;;;;5046453;28;20441;-67
2022/12/22 04:57:59;;;;;;;73.20;11.47;;;;;;;;;;5045636;28;20029;-67
2022/12/22 05:00:24;;;;;;;33.22;7.05;;;;;;;;;;5043627;28;20263;-66
2022/12/22 05:02:50;;;;;;;29.52;5.82;;;;;;;;;;5047371;28;20025;-65
2022/12/22 05:05:16;;;;;;;33.50;5.80;;;;;;;;;;5050813;28;20039;-67
2022/12/22 05:07:42;;;;;;;24.45;4.55;;;;;;;;;;5050467;28;20025;-67
2022/12/22 05:10:07;;;;;;;42.63;5.15;;;;;;;;;;5050471;28;20028;-66
2022/12/22 05:15:17;;;;;;;82.18;8.05;;;;;;;;;;5041460;28;20087;-68
2022/12/22 05:17:42;;;;;;;32.28;7.35;;;;;;;;;;5050767;28;20471;-66
2022/12/22 05:20:07;;;;;;;16.02;3.88;;;;;;;;;;5050003;28;20158;-66
2022/12/22 05:22:33;;;;;;;9.15;5.20;;;;;;;;;;5048118;28;20078;-67
2022/12/22 05:24:58;;;;;;;7.30;4.88;;;;;;;;;;5048781;28;20028;-67
2022/12/22 05:27:23;;;;;;;7.17;4.67;;;;;;;;;;5050700;28;20027;-66
2022/12/22 05:29:48;;;;;;;7.10;4.30;;;;;;;;;;5051204;28;20310;-66
2022/12/22 05:32:14;;;;;;;8.23;5.25;;;;;;;;;;5049496;28;20032;-66
2022/12/22 05:34:39;;;;;;;8.70;5.60;;;;;;;;;;5050950;28;20021;-66
2022/12/22 05:37:04;;;;;;;8.88;5.85;;;;;;;;;;5047572;28;20111;-66
2022/12/22 05:39:29;;;;;;;5.95;4.53;;;;;;;;;;5037507;28;20063;-67
2022/12/22 05:41:54;;;;;;;8.57;5.63;;;;;;;;;;5050728;28;20025;-66
2022/12/22 05:44:20;;;;;;;8.30;6.35;;;;;;;;;;5047770;28;20486;-66
2022/12/22 05:46:45;;;;;;;9.32;7.22;;;;;;;;;;5049016;28;20459;-66
2022/12/22 05:49:10;;;;;;;10.60;6.72;;;;;;;;;;5048215;28;20032;-66
2022/12/22 05:51:35;;;;;;;8.93;6.28;;;;;;;;;;5048138;28;20035;-66
2022/12/22 05:54:01;;;;;;;9.68;6.57;;;;;;;;;;5038281;28;20518;-67
2022/12/22 05:56:26;;;;;;;7.65;5.35;;;;;;;;;;5041538;28;20021;-66
2022/12/22 05:58:51;;;;;;;8.15;5.55;;;;;;;;;;5046283;28;20163;-66
2022/12/22 06:01:16;;;;;;;8.07;6.05;;;;;;;;;;5048896;28;20021;-66
2022/12/22 06:03:42;;;;;;;10.67;6.13;;;;;;;;;;5040811;28;20040;-66
2022/12/22 06:06:07;;;;;;;10.48;6.85;;;;;;;;;;5046473;28;20773;-66
2022/12/22 06:08:32;;;;;;;10.38;6.93;;;;;;;;;;5047777;28;20461;-66
2022/12/22 06:10:57;;;;;;;9.63;6.22;;;;;;;;;;5041772;28;20036;-66
2022/12/22 06:13:23;;;;;;;12.25;6.63;;;;;;;;;;5044507;28;20063;-66
2022/12/22 06:15:49;;;;;;;10.75;6.93;;;;;;;;;;5040728;28;20033;-66
2022/12/22 06:18:14;;;;;;;7.53;6.15;;;;;;;;;;5047795;28;20017;-66
2022/12/22 06:20:39;;;;;;;12.45;7.45;;;;;;;;;;5046704;28;20063;-66
2022/12/22 06:23:04;;;;;;;8.70;6.60;;;;;;;;;;5045082;28;20017;-66
2022/12/22 06:25:30;;;;;;;9.70;7.35;;;;;;;;;;5045443;28;20039;-66
2022/12/22 06:27:55;;;;;;;11.00;7.22;;;;;;;;;;5045429;28;20017;-66
2022/12/22 06:30:20;;;;;;;8.88;6.88;;;;;;;;;;5048372;28;20530;-66
2022/12/22 06:32:46;;;;;;;13.20;7.25;;;;;;;;;;5049393;28;20390;-66
2022/12/22 06:35:11;;;;;;;11.43;7.07;;;;;;;;;;5047391;28;20025;-68
2022/12/22 06:37:36;;;;;;;7.78;6.80;;;;;;;;;;5043692;28;20072;-66
2022/12/22 06:40:02;;;;;;;11.02;8.82;;;;;;;;;;5042041;28;20030;-67
2022/12/22 06:45:11;;;;;;;12.03;9.70;;;;;;;;;;5045975;28;20036;-66
2022/12/22 06:47:37;;;;;;;12.75;10.52;;;;;;;;;;5043496;28;20021;-66
2022/12/22 06:50:02;;;;;;;15.68;13.18;;;;;;;;;;5047005;28;20025;-66
2022/12/22 06:52:27;;;;;;;15.02;12.23;;;;;;;;;;5041041;28;20057;-65
2022/12/22 06:54:53;;;;;;;18.57;16.57;;;;;;;;;;5040507;28;20098;-65
2022/12/22 06:57:18;;;;;;;21.65;17.63;;;;;;;;;;5040779;28;20282;-65
2022/12/22 06:59:43;;;;;;;22.25;18.20;;;;;;;;;;5043126;28;20048;-65
2022/12/22 07:02:09;;;;;;;23.10;18.88;;;;;;;;;;5045843;28;20648;-66
2022/12/22 07:04:34;;;;;;;24.90;19.63;;;;;;;;;;5043718;28;20017;-66
2022/12/22 07:06:59;;;;;;;26.05;21.40;;;;;;;;;;5040944;28;20095;-66
2022/12/22 07:09:25;;;;;;;33.63;26.55;;;;;;;;;;5038461;28;20049;-67
2022/12/22 07:11:50;;;;;;;32.35;25.27;;;;;;;;;;5025136;28;20021;-68
2022/12/22 07:14:15;;;;;;;36.40;28.33;;;;;;;;;;5019639;28;20028;-68
2022/12/22 07:16:40;;;;;;;36.13;28.63;;;;;;;;;;5023074;28;20025;-68
2022/12/22 07:19:06;;;;;;;40.47;29.40;;;;;;;;;;5030507;28;20590;-67
2022/12/22 07:21:31;;;;;;;38.40;28.73;;;;;;;;;;5030571;28;20020;-67
2022/12/22 07:23:56;;;;;;;41.63;29.58;;;;;;;;;;5030837;28;20086;-67
2022/12/22 07:26:22;;;;;;;47.20;33.20;;;;;;;;;;5026494;28;20075;-67
2022/12/22 07:28:47;;;;;;;42.25;31.42;;;;;;;;;;5030570;28;20321;-67
2022/12/22 07:31:14;;;;;;;36.92;30.95;;;;;;;;;;5021098;28;20017;-67
2022/12/22 07:33:39;;;;;;;47.53;33.08;;;;;;;;;;5032511;28;20029;-67
2022/12/22 07:36:05;;;;;;;50.70;36.88;;;;;;;;;;5029508;28;20071;-67
2022/12/22 07:38:31;;;;;;;48.92;37.35;;;;;;;;;;5024230;28;20043;-67
2022/12/22 07:40:57;;;;;;;50.70;35.28;;;;;;;;;;5028652;28;20051;-67
2022/12/22 07:43:23;;;;;;;58.22;34.88;;;;;;;;;;5030383;28;20033;-67
2022/12/22 07:45:48;;;;;;;47.23;33.47;;;;;;;;;;5029931;28;20088;-67
2022/12/22 07:50:59;;;;;;;43.50;33.07;;;;;;;;;;5030169;28;20159;-67
2022/12/22 07:53:25;;;;;;;43.05;32.05;;;;;;;;;;5029632;28;20298;-68
2022/12/22 07:55:50;;;;;;;43.83;32.05;;;;;;;;;;5033137;28;20127;-67
2022/12/22 07:58:16;;;;;;;46.70;33.78;;;;;;;;;;5036208;28;20297;-67
2022/12/22 08:00:41;;;;;;;44.47;34.50;;;;;;;;;;5035404;28;20051;-66
2022/12/22 08:03:07;;;;;;;46.37;35.30;;;;;;;;;;5034385;28;20009;-68
2022/12/22 08:05:33;;;;;;;50.78;35.97;;;;;;;;;;5032767;28;20275;-66
2022/12/22 08:07:58;;;;;;;57.17;38.70;;;;;;;;;;5022620;28;20017;-67
2022/12/22 08:10:23;;;;;;;61.80;41.55;;;;;;;;;;5053024;28;20086;-67
2022/12/22 08:12:48;;;;;;;64.57;42.70;;;;;;;;;;5016287;28;20016;-66
2022/12/22 08:15:14;;;;;;;48.92;37.08;;;;;;;;;;5004143;28;20018;-67
2022/12/22 08:17:39;;;;;;;60.30;42.08;;;;;;;;;;5007184;28;20861;-67
2022/12/22 08:20:05;;;;;;;68.37;41.73;;;;;;;;;;5006631;28;21002;-66
2022/12/22 08:22:30;;;;;;;62.45;41.17;;;;;;;;;;5006432;28;21127;-67
2022/12/22 08:24:56;;;;;;;66.00;41.58;;;;;;;;;;4995342;28;20017;-67
2022/12/22 08:27:39;;;;;;;71.60;45.75;;;;;;;;;;5004056;28;20913;-66
2022/12/22 08:30:06;;;;;;;66.72;45.65;;;;;;;;;;5000892;28;20878;-67
2022/12/22 08:32:31;;;;;;;68.72;43.97;;;;;;;;;;5006259;28;20005;-67
2022/12/22 08:34:56;;;;;;;65.20;44.75;;;;;;;;;;5004228;28;20040;-67
2022/12/22 08:37:23;;;;;;;69.63;45.97;;;;;;;;;;5007646;28;20133;-66
2022/12/22 08:39:51;;;;;;;74.60;44.00;;;;;;;;;;5011357;28;20036;-67
2022/12/22 08:42:17;;;;;;;68.05;43.55;;;;;;;;;;5011128;28;20009;-67
2022/12/22 08:44:44;;;;;;;78.00;43.83;;;;;;;;;;5001585;28;20029;-67
2022/12/22 08:47:10;;;;;;;69.75;44.33;;;;;;;;;;4998869;28;20056;-67
2022/12/22 08:49:35;;;;;;;77.45;44.58;;;;;;;;;;5009266;28;20043;-67
2022/12/22 08:52:00;;;;;;;80.28;45.00;;;;;;;;;;5010093;28;20017;-67
2022/12/22 08:54:26;;;;;;;79.30;44.00;;;;;;;;;;5010864;28;20877;-66
2022/12/22 08:56:51;;;;;;;74.72;40.80;;;;;;;;;;5011041;28;20124;-66
2022/12/22 08:59:17;;;;;;;71.40;41.45;;;;;;;;;;5010594;28;20075;-67
2022/12/22 09:01:49;;;;;;;76.60;43.75;;;;;;;;;;5009811;28;20828;-67
2022/12/22 09:04:15;;;;;;;60.50;40.38;;;;;;;;;;5018240;28;20005;-67
2022/12/22 09:06:40;;;;;;;73.65;44.25;;;;;;;;;;5045718;28;20032;-67
2022/12/22 09:09:06;;;;;;;65.70;42.30;;;;;;;;;;5045369;28;20021;-66
2022/12/22 09:11:31;;;;;;;77.10;45.28;;;;;;;;;;5045502;28;20032;-68
2022/12/22 09:13:58;;;;;;;54.42;37.17;;;;;;;;;;5047440;28;20479;-67
2022/12/22 09:16:24;;;;;;;58.67;39.10;;;;;;;;;;5046144;28;20750;-67
2022/12/22 09:18:49;;;;;;;76.45;41.03;;;;;;;;;;5039100;28;20979;-67
2022/12/22 09:21:15;;;;;;;53.67;40.22;;;;;;;;;;5047597;28;20025;-68
2022/12/22 09:23:41;;;;;;;59.13;39.00;;;;;;;;;;5042893;28;20021;-70
2022/12/22 09:26:10;;;;;;;61.28;38.13;;;;;;;;;;5013279;28;20916;-65
2022/12/22 09:28:35;;;;;;;47.63;33.55;;;;;;;;;;5043160;28;20032;-71
2022/12/22 09:31:01;;;;;;;44.65;32.63;;;;;;;;;;5051146;28;20079;-68
2022/12/22 09:33:26;;;;;;;47.95;32.63;;;;;;;;;;5054260;28;20011;-67
2022/12/22 09:35:51;;;;;;;46.28;31.83;;;;;;;;;;5030355;28;20885;-68
2022/12/22 09:38:16;;;;;;;45.10;32.10;;;;;;;;;;5018203;28;20047;-72
2022/12/22 09:40:42;;;;;;;49.95;32.97;;;;;;;;;;5053647;28;20416;-67
2022/12/22 09:43:11;;;;;;;40.60;31.73;;;;;;;;;;5053518;28;20078;-66
2022/12/22 09:45:36;;;;;;;47.17;34.20;;;;;;;;;;5053358;28;20028;-67
2022/12/22 09:48:02;;;;;;;45.78;33.03;;;;;;;;;;5041484;28;20123;-67
2022/12/22 09:50:29;;;;;;;43.88;30.88;;;;;;;;;;5035815;28;20039;-67
2022/12/22 09:52:57;;;;;;;48.03;31.48;;;;;;;;;;5008275;28;20029;-67
2022/12/22 09:55:22;;;;;;;37.30;28.30;;;;;;;;;;5010948;28;20033;-67
2022/12/22 09:57:47;;;;;;;45.87;29.47;;;;;;;;;;5025344;28;20450;-67
2022/12/22 10:00:14;;;;;;;42.53;26.15;;;;;;;;;;5053579;28;20339;-67
2022/12/22 10:02:55;;;;;;;30.10;23.83;;;;;;;;;;5053611;28;20021;-68
2022/12/22 10:05:27;;;;;;;33.42;23.48;;;;;;;;;;5053930;28;20021;-69
2022/12/22 10:07:52;;;;;;;31.10;22.85;;;;;;;;;;5053757;28;20039;-68
2022/12/22 10:10:23;;;;;;;24.80;20.17;;;;;;;;;;5020301;28;20016;-67
2022/12/22 10:12:49;;;;;;;27.13;21.08;;;;;;;;;;5005414;28;20021;-67
2022/12/22 10:15:14;;;;;;;22.85;18.48;;;;;;;;;;5007788;28;20109;-67
2022/12/22 10:17:39;;;;;;;24.88;19.02;;;;;;;;;;5008676;28;20807;-67
2022/12/22 10:20:19;;;;;;;23.73;16.90;;;;;;;;;;5052428;28;20478;-68
2022/12/22 10:22:45;;;;;;;26.23;18.48;;;;;;;;;;5052598;28;20525;-68
2022/12/22 10:25:22;;;;;;;29.00;17.80;;;;;;;;;;5047608;28;20017;-68
2022/12/22 10:27:47;;;;;;;28.58;16.73;;;;;;;;;;5006818;28;20301;-67
2022/12/22 10:30:16;;;;;;;25.17;15.05;;;;;;;;;;5004958;28;20040;-67
2022/12/22 10:32:42;;;;;;;19.27;15.95;;;;;;;;;;5007475;28;20846;-68
2022/12/22 10:35:07;;;;;;;20.10;14.68;;;;;;;;;;5007343;28;20051;-69
2022/12/22 10:37:34;;;;;;;25.23;15.10;;;;;;;;;;5001290;28;20164;-74
2022/12/22 10:40:11;;;;;;;18.10;14.60;;;;;;;;;;4997931;28;20021;-67
2022/12/22 10:42:37;;;;;;;18.10;14.18;;;;;;;;;;5020972;28;20021;-67
2022/12/22 10:45:02;;;;;;;19.25;15.18;;;;;;;;;;5051681;28;20017;-67
2022/12/22 10:47:27;;;;;;;20.70;16.25;;;;;;;;;;5052083;28;20032;-67
2022/12/22 10:49:58;;;;;;;25.23;17.88;;;;;;;;;;5051902;28;20029;-67
2022/12/22 10:52:26;;;;;;;23.30;16.85;;;;;;;;;;5051270;28;20108;-67
2022/12/22 10:54:51;;;;;;;28.80;20.38;;;;;;;;;;5051087;28;20518;-67
2022/12/22 10:57:18;;;;;;;23.35;18.23;;;;;;;;;;5043252;28;20545;-68
2022/12/22 10:59:54;;;;;;;22.63;17.17;;;;;;;;;;5036244;28;20021;-67
2022/12/22 11:02:27;;;;;;;20.40;16.80;;;;;;;;;;5005989;28;20082;-67
2022/12/22 11:04:53;;;;;;;24.85;17.33;;;;;;;;;;5004862;28;20020;-68
2022/12/22 11:07:19;;;;;;;23.02;18.63;;;;;;;;;;5007488;28;20023;-67
2022/12/22 11:09:44;;;;;;;22.75;16.92;;;;;;;;;;5006312;28;20017;-67
2022/12/22 11:12:15;;;;;;;26.02;19.20;;;;;;;;;;5004904;28;20601;-68
2022/12/22 11:14:59;;;;;;;25.83;18.42;;;;;;;;;;5015986;28;20032;-67
2022/12/22 11:17:27;;;;;;;20.08;14.30;;;;;;;;;;5044405;28;20107;-68
2022/12/22 11:19:59;;;;;;;27.42;19.40;;;;;;;;;;5052208;28;20497;-67
2022/12/22 11:22:38;;;;;;;26.83;19.98;;;;;;;;;;5051746;28;20471;-67
2022/12/22 11:25:21;;;;;;;24.45;18.73;;;;;;;;;;5052287;28;20043;-67
2022/12/22 11:27:58;;;;;;;24.25;19.42;;;;;;;;;;5052032;28;20036;-67
2022/12/22 11:30:31;;;;;;;24.40;18.60;;;;;;;;;;5051613;28;20021;-67
2022/12/22 11:33:21;;;;;;;21.88;18.63;;;;;;;;;;5052100;28;20188;-67
2022/12/22 11:35:55;;;;;;;20.48;16.10;;;;;;;;;;5041963;28;20426;-67
2022/12/22 11:38:20;;;;;;;23.17;17.98;;;;;;;;;;5049012;28;20364;-67
2022/12/22 11:40:48;;;;;;;23.80;17.58;;;;;;;;;;5052042;28;20021;-67
2022/12/22 11:43:19;;;;;;;20.65;17.50;;;;;;;;;;5051801;28;20017;-67
2022/12/22 11:45:47;;;;;;;25.38;17.73;;;;;;;;;;5052084;28;20044;-67
2022/12/22 11:48:31;;;;;;;24.00;18.55;;;;;;;;;;5051413;28;20033;-67
2022/12/22 11:50:59;;;;;;;19.35;15.50;;;;;;;;;;5048719;28;20383;-67
2022/12/22 11:53:40;;;;;;;27.58;17.33;;;;;;;;;;5051760;28;20375;-68
2022/12/22 11:56:15;;;;;;;30.05;18.90;;;;;;;;;;5051633;28;20036;-67
2022/12/22 11:58:46;;;;;;;29.60;19.45;;;;;;;;;;5014777;28;20153;-67
2022/12/22 12:01:17;;;;;;;27.45;19.10;;;;;;;;;;5003041;28;20887;-67
2022/12/22 12:03:56;;;;;;;28.05;18.70;;;;;;;;;;5005511;28;20129;-68
2022/12/22 12:06:21;;;;;;;25.67;19.33;;;;;;;;;;5005036;28;20074;-67
2022/12/22 12:08:50;;;;;;;28.98;18.83;;;;;;;;;;5003532;28;20021;-67
2022/12/22 12:11:18;;;;;;;22.48;18.75;;;;;;;;;;5006958;28;20127;-67
2022/12/22 12:13:43;;;;;;;19.25;15.95;;;;;;;;;;5052670;28;20108;-67
2022/12/22 12:16:17;;;;;;;19.53;16.03;;;;;;;;;;5039818;28;20029;-68
2022/12/22 12:18:48;;;;;;;28.52;18.42;;;;;;;;;;5007987;28;20268;-67
2022/12/22 12:21:16;;;;;;;20.98;16.05;;;;;;;;;;5013710;28;20018;-67
2022/12/22 12:23:41;;;;;;;18.35;16.33;;;;;;;;;;5048725;28;20096;-67
2022/12/22 12:26:06;;;;;;;20.07;15.50;;;;;;;;;;5045051;28;20547;-68
2022/12/22 12:28:39;;;;;;;18.77;14.43;;;;;;;;;;5054839;28;20769;-68
2022/12/22 12:31:06;;;;;;;26.48;16.30;;;;;;;;;;5053880;28;20310;-68
2022/12/22 12:33:43;;;;;;;23.88;14.10;;;;;;;;;;5055626;28;20031;-68
2022/12/22 12:36:12;;;;;;;13.82;11.98;;;;;;;;;;5053644;28;20064;-67
2022/12/22 12:38:45;;;;;;;13.95;11.30;;;;;;;;;;5055076;28;20033;-68
2022/12/22 12:41:29;;;;;;;10.15;8.63;;;;;;;;;;5055722;28;20013;-67
2022/12/22 12:43:55;;;;;;;9.82;6.93;;;;;;;;;;5051987;28;20025;-68
2022/12/22 12:46:43;;;;;;;6.50;5.30;;;;;;;;;;5046513;28;20027;-67
2022/12/22 12:49:28;;;;;;;8.20;4.30;;;;;;;;;;5040114;28;20041;-68
2022/12/22 12:51:54;;;;;;;7.53;5.10;;;;;;;;;;5051331;28;20025;-71
2022/12/22 12:54:28;;;;;;;6.28;4.03;;;;;;;;;;5044015;28;20096;-67
2022/12/22 12:57:12;;;;;;;5.30;3.72;;;;;;;;;;5053211;28;20464;-67
2022/12/22 12:59:40;;;;;;;7.90;3.78;;;;;;;;;;5052251;28;20047;-68
2022/12/22 13:02:23;;;;;;;6.68;4.10;;;;;;;;;;5047528;28;20092;-67
2022/12/22 13:05:10;;;;;;;6.20;4.45;;;;;;;;;;5049584;28;20029;-67
2022/12/22 13:07:53;;;;;;;7.93;4.60;;;;;;;;;;5045747;28;20078;-67
2022/12/22 13:10:20;;;;;;;7.72;5.75;;;;;;;;;;5032420;28;20029;-67
2022/12/22 13:12:50;;;;;;;6.78;4.15;;;;;;;;;;5030420;28;20554;-68
2022/12/22 13:15:48;;;;;;;5.38;3.80;;;;;;;;;;5042622;28;20050;-68
2022/12/22 13:18:27;;;;;;;7.38;4.25;;;;;;;;;;5021215;28;20074;-68
2022/12/22 13:20:57;;;;;;;7.45;4.35;;;;;;;;;;5045206;28;20028;-68
2022/12/22 13:23:23;;;;;;;7.85;4.65;;;;;;;;;;5044157;28;20028;-68
2022/12/22 13:25:52;;;;;;;7.72;5.60;;;;;;;;;;5041867;28;20025;-68
2022/12/22 13:28:18;;;;;;;6.50;4.38;;;;;;;;;;5045107;28;20084;-68
2022/12/22 13:30:48;;;;;;;8.38;4.72;;;;;;;;;;5045661;28;20028;-68
2022/12/22 13:33:15;;;;;;;5.80;3.85;;;;;;;;;;5046028;28;20033;-68
2022/12/22 13:35:41;;;;;;;8.48;3.53;;;;;;;;;;5045158;28;21272;-68
2022/12/22 13:38:24;;;;;;;10.95;3.85;;;;;;;;;;5039509;28;20074;-68
2022/12/22 13:40:49;;;;;;;4.63;2.58;;;;;;;;;;5042378;28;20024;-68
2022/12/22 13:43:16;;;;;;;4.13;2.42;;;;;;;;;;5039483;28;20459;-68
2022/12/22 13:45:43;;;;;;;3.83;1.95;;;;;;;;;;5041011;28;20024;-67
2022/12/22 13:48:14;;;;;;;4.75;2.05;;;;;;;;;;5040903;28;20028;-70
2022/12/22 13:50:50;;;;;;;2.15;1.40;;;;;;;;;;5031656;28;20494;-68
2022/12/22 13:53:17;;;;;;;4.72;2.20;;;;;;;;;;5045369;28;20024;-71
2022/12/22 13:55:45;;;;;;;3.75;2.08;;;;;;;;;;5042021;28;20088;-71
2022/12/22 13:58:39;;;;;;;4.20;2.10;;;;;;;;;;5046375;28;20616;-72
2022/12/22 14:01:13;;;;;;;5.78;2.75;;;;;;;;;;5045708;28;20040;-69
2022/12/22 14:03:44;;;;;;;3.87;2.70;;;;;;;;;;5046478;28;20112;-68
2022/12/22 14:06:18;;;;;;;4.55;2.67;;;;;;;;;;5040519;28;20626;-69
2022/12/22 14:08:43;;;;;;;4.95;2.70;;;;;;;;;;5035451;28;20629;-68
2022/12/22 14:11:09;;;;;;;4.05;2.40;;;;;;;;;;5046190;28;20039;-69
2022/12/22 14:13:34;;;;;;;4.80;2.58;;;;;;;;;;5043459;28;20482;-69
2022/12/22 14:16:01;;;;;;;4.10;2.45;;;;;;;;;;5031168;28;20120;-69
2022/12/22 14:18:26;;;;;;;4.43;2.40;;;;;;;;;;5035921;28;20036;-69
2022/12/22 14:20:52;;;;;;;4.28;2.13;;;;;;;;;;5042771;28;20020;-68
2022/12/22 14:23:17;;;;;;;4.80;2.40;;;;;;;;;;5042066;28;20060;-69
2022/12/22 14:25:43;;;;;;;3.97;2.17;;;;;;;;;;5046034;28;20231;-69
2022/12/22 14:28:29;;;;;;;4.05;2.20;;;;;;;;;;5040775;28;20025;-71
2022/12/22 14:30:58;;;;;;;5.07;2.38;;;;;;;;;;5040220;28;20418;-70
2022/12/22 14:33:25;;;;;;;4.03;2.00;;;;;;;;;;5037408;28;20028;-67
2022/12/22 14:35:50;;;;;;;4.05;2.28;;;;;;;;;;5030472;28;20609;-67
2022/12/22 14:38:23;;;;;;;3.53;1.90;;;;;;;;;;5028005;28;20065;-67
2022/12/22 14:40:49;;;;;;;4.57;1.92;;;;;;;;;;5038708;28;20021;-67
2022/12/22 14:43:18;;;;;;;3.63;2.10;;;;;;;;;;5040523;28;20021;-67
2022/12/22 14:45:46;;;;;;;3.88;2.17;;;;;;;;;;5043792;28;20031;-67
2022/12/22 14:48:23;;;;;;;4.03;1.88;;;;;;;;;;5040522;28;20052;-67
2022/12/22 14:50:49;;;;;;;4.85;2.03;;;;;;;;;;5039953;28;20103;-68
2022/12/22 14:53:15;;;;;;;3.88;2.20;;;;;;;;;;5039573;28;20063;-67
2022/12/22 14:55:47;;;;;;;3.75;2.25;;;;;;;;;;5037771;28;20021;-69
2022/12/22 14:58:19;;;;;;;3.65;2.50;;;;;;;;;;5038284;28;20083;-68
2022/12/22 15:00:48;;;;;;;4.05;2.85;;;;;;;;;;5036857;28;20025;-70
2022/12/22 15:03:32;;;;;;;3.72;2.42;;;;;;;;;;5041124;28;20024;-67
2022/12/22 15:06:16;;;;;;;5.20;2.65;;;;;;;;;;5040533;28;20022;-67
2022/12/22 15:08:42;;;;;;;3.70;2.25;;;;;;;;;;5050152;28;20056;-68
2022/12/22 15:11:08;;;;;;;3.40;2.40;;;;;;;;;;5048754;28;20052;-68
2022/12/22 15:13:35;;;;;;;4.40;2.35;;;;;;;;;;5050075;28;20486;-66
2022/12/22 15:16:00;;;;;;;4.20;3.22;;;;;;;;;;5049915;28;20027;-66
2022/12/22 15:18:26;;;;;;;6.55;3.55;;;;;;;;;;5048419;28;20025;-66
2022/12/22 15:20:52;;;;;;;6.22;3.10;;;;;;;;;;5048306;28;20096;-65
2022/12/22 15:23:18;;;;;;;4.45;2.75;;;;;;;;;;5048357;28;20114;-66
2022/12/22 15:25:43;;;;;;;8.23;3.38;;;;;;;;;;5047597;28;20016;-66
2022/12/22 15:28:08;;;;;;;8.25;3.30;;;;;;;;;;5048712;28;20151;-65
2022/12/22 15:30:34;;;;;;;7.53;3.40;;;;;;;;;;5049132;28;20016;-65
2022/12/22 15:32:59;;;;;;;8.82;3.28;;;;;;;;;;5049138;28;20128;-65
2022/12/22 15:35:30;;;;;;;7.55;3.80;;;;;;;;;;5046823;28;20029;-66
2022/12/22 15:37:55;;;;;;;10.05;4.05;;;;;;;;;;5047229;28;20017;-66
2022/12/22 15:40:21;;;;;;;10.32;5.18;;;;;;;;;;5049391;28;20115;-65
2022/12/22 15:42:46;;;;;;;7.93;4.22;;;;;;;;;;5049873;28;20032;-65
2022/12/22 15:45:12;;;;;;;12.27;5.50;;;;;;;;;;5048790;28;20066;-74
2022/12/22 15:47:38;;;;;;;10.70;5.05;;;;;;;;;;5046080;28;20103;-67
2022/12/22 15:50:04;;;;;;;14.32;6.07;;;;;;;;;;5050473;28;20035;-66
2022/12/22 15:52:30;;;;;;;12.93;6.07;;;;;;;;;;5049525;28;20020;-66
2022/12/22 15:54:55;;;;;;;11.80;5.13;;;;;;;;;;5050116;28;20052;-65
2022/12/22 15:57:21;;;;;;;10.07;5.00;;;;;;;;;;5045954;28;20063;-66
2022/12/22 15:59:46;;;;;;;19.30;6.72;;;;;;;;;;5050154;28;20024;-67
2022/12/22 16:02:12;;;;;;;18.00;6.95;;;;;;;;;;5044932;28;20051;-67
2022/12/22 16:04:37;;;;;;;14.77;6.07;;;;;;;;;;5036590;28;20078;-66
2022/12/22 16:07:03;;;;;;;26.45;8.07;;;;;;;;;;5046960;28;20033;-66
2022/12/22 16:09:39;;;;;;;17.55;7.15;;;;;;;;;;5046055;28;20017;-67
2022/12/22 16:12:11;;;;;;;18.83;7.65;;;;;;;;;;5047228;28;20017;-67
2022/12/22 16:14:36;;;;;;;18.83;6.43;;;;;;;;;;5046935;28;20029;-66
2022/12/22 16:17:02;;;;;;;22.23;8.95;;;;;;;;;;5047490;28;20730;-66
2022/12/22 16:19:27;;;;;;;16.35;6.72;;;;;;;;;;5046356;28;20025;-68
2022/12/22 16:21:53;;;;;;;22.25;7.70;;;;;;;;;;5046424;28;20028;-68
2022/12/22 16:24:21;;;;;;;16.98;7.25;;;;;;;;;;5048526;28;20013;-68
2022/12/22 16:26:46;;;;;;;21.95;8.10;;;;;;;;;;5045356;28;20029;-68
2022/12/22 16:29:14;;;;;;;24.88;7.18;;;;;;;;;;5046969;28;20100;-68
2022/12/22 16:31:39;;;;;;;25.20;6.85;;;;;;;;;;5045587;28;20032;-68
2022/12/22 16:34:04;;;;;;;15.07;7.03;;;;;;;;;;5047210;28;20033;-65
2022/12/22 16:36:29;;;;;;;22.27;8.57;;;;;;;;;;5047480;28;20028;-65
2022/12/22 16:38:55;;;;;;;24.63;7.43;;;;;;;;;;5030765;28;20827;-65
2022/12/22 16:41:23;;;;;;;29.48;7.40;;;;;;;;;;5007216;28;20033;-66
2022/12/22 16:43:50;;;;;;;17.65;7.20;;;;;;;;;;5045394;28;20111;-69
2022/12/22 16:46:17;;;;;;;18.75;7.10;;;;;;;;;;5049181;28;20021;-67
2022/12/22 16:48:47;;;;;;;22.38;8.43;;;;;;;;;;5036648;28;20029;-67
2022/12/22 16:51:17;;;;;;;23.88;8.75;;;;;;;;;;5048718;28;20017;-67
2022/12/22 16:53:42;;;;;;;26.63;8.00;;;;;;;;;;5044624;28;20115;-67
2022/12/22 16:56:12;;;;;;;21.25;8.35;;;;;;;;;;5022958;28;20038;-66
2022/12/22 16:58:37;;;;;;;23.65;7.28;;;;;;;;;;5003241;28;20026;-67
2022/12/22 17:01:03;;;;;;;19.90;8.40;;;;;;;;;;5016979;28;20769;-67
2022/12/22 17:03:30;;;;;;;27.17;8.80;;;;;;;;;;5015655;28;20013;-67
2022/12/22 17:05:57;;;;;;;31.83;8.80;;;;;;;;;;5013866;28;20032;-67
2022/12/22 17:08:28;;;;;;;23.88;9.13;;;;;;;;;;5014258;28;20092;-67
2022/12/22 17:10:54;;;;;;;23.52;9.73;;;;;;;;;;5019092;28;20099;-67
2022/12/22 17:13:20;;;;;;;20.38;8.75;;;;;;;;;;5017799;28;20024;-67
2022/12/22 17:15:45;;;;;;;23.60;8.60;;;;;;;;;;5019427;28;20029;-67
2022/12/22 17:18:14;;;;;;;26.08;7.88;;;;;;;;;;5021930;28;20017;-67
2022/12/22 17:20:40;;;;;;;18.55;7.63;;;;;;;;;;5019125;28;20071;-67
2022/12/22 17:23:05;;;;;;;34.45;9.10;;;;;;;;;;5020814;28;20025;-67
2022/12/22 17:25:30;;;;;;;31.02;9.35;;;;;;;;;;5019545;28;20025;-67
2022/12/22 17:27:57;;;;;;;33.33;9.82;;;;;;;;;;5018078;28;20013;-67
2022/12/22 17:30:23;;;;;;;39.50;11.55;;;;;;;;;;5014531;28;20087;-67
2022/12/22 17:32:51;;;;;;;32.83;10.43;;;;;;;;;;5014863;28;20017;-67
2022/12/22 17:35:17;;;;;;;40.85;11.45;;;;;;;;;;5016063;28;20036;-68
2022/12/22 17:37:44;;;;;;;32.25;11.52;;;;;;;;;;5014433;28;20142;-67
2022/12/22 17:40:14;;;;;;;44.97;13.10;;;;;;;;;;5016639;28;20596;-68
2022/12/22 17:42:39;;;;;;;40.85;12.13;;;;;;;;;;5014711;28;20029;-68
2022/12/22 17:45:05;;;;;;;45.67;12.18;;;;;;;;;;5006397;28;20017;-67
2022/12/22 17:47:30;;;;;;;41.05;13.10;;;;;;;;;;5014836;28;20125;-67
2022/12/22 17:49:57;;;;;;;43.38;14.10;;;;;;;;;;5013749;28;20025;-67
2022/12/22 17:52:23;;;;;;;39.60;13.30;;;;;;;;;;5011860;28;20043;-67
2022/12/22 17:54:49;;;;;;;43.15;13.05;;;;;;;;;;5015682;28;20866;-67
2022/12/22 17:57:26;;;;;;;43.95;13.25;;;;;;;;;;5019648;28;20090;-67
2022/12/22 17:59:51;;;;;;;43.60;12.98;;;;;;;;;;5014271;28;20981;-67
2022/12/22 18:02:18;;;;;;;42.50;14.63;;;;;;;;;;5009129;28;20025;-67
2022/12/22 18:04:43;;;;;;;53.38;15.07;;;;;;;;;;5012227;28;20917;-67
2022/12/22 18:07:08;;;;;;;49.67;15.40;;;;;;;;;;5007927;28;20021;-67
2022/12/22 18:09:34;;;;;;;44.55;15.25;;;;;;;;;;5008867;28;20028;-68
2022/12/22 18:11:59;;;;;;;42.05;14.88;;;;;;;;;;5010020;28;20059;-67
2022/12/22 18:14:26;;;;;;;35.13;15.00;;;;;;;;;;5012096;28;20029;-67